Time;durP1;ratioP1;P1;durP2;ratioP2;P2;SDS_P1;SDS_P2;PMS_P1;PMS_P2;Temp;Humidity;BMP_temperature;BMP_pressure;BME280_temperature;BME280_humidity;BME280_pressure;Samples;Min_cycle;Max_cycle;Signal;HPM_P1;HPM_P2
2022/07/15 00:01:00;;;;;;;11.00;2.60;;;;;;;17.83;56.48;100353.62;1733283;80;25837;-84
2022/07/15 00:03:26;;;;;;;4.25;1.12;;;;;;;17.78;56.35;100354.87;1723716;81;27465;-83
2022/07/15 00:05:52;;;;;;;3.65;1.07;;;;;;;17.69;56.41;100359.83;1768714;80;25998;-84
2022/07/15 00:08:19;;;;;;;5.60;1.72;;;;;;;17.65;56.64;100356.79;1752411;80;25801;-84
2022/07/15 00:10:45;;;;;;;3.40;1.30;;;;;;;17.63;56.75;100359.44;1726737;81;25750;-83
2022/07/15 00:13:11;;;;;;;4.10;1.00;;;;;;;17.64;56.73;100355.13;1769217;80;25887;-83
2022/07/15 00:15:38;;;;;;;5.75;1.22;;;;;;;17.65;56.64;100355.44;1767470;80;28270;-84
2022/07/15 00:18:04;;;;;;;5.28;1.35;;;;;;;17.67;56.63;100358.73;1765147;80;25802;-84
2022/07/15 00:20:33;;;;;;;7.28;1.42;;;;;;;17.66;56.47;100357.62;1705828;81;25847;-84
2022/07/15 00:23:05;;;;;;;2.20;0.90;;;;;;;17.66;56.83;100360.33;1764482;80;26384;-84
2022/07/15 00:25:33;;;;;;;4.15;1.20;;;;;;;17.62;56.94;100359.96;1726623;81;26541;-84
2022/07/15 00:28:03;;;;;;;3.77;1.30;;;;;;;17.59;57.02;100356.39;1768267;80;28065;-84
2022/07/15 00:30:37;;;;;;;4.78;1.30;;;;;;;17.55;57.02;100355.75;1726466;81;26017;-84
2022/07/15 00:33:04;;;;;;;5.85;1.80;;;;;;;17.49;56.97;100350.70;1766200;80;25678;-83
2022/07/15 00:35:33;;;;;;;5.28;1.07;;;;;;;17.44;57.17;100359.26;1755885;80;25849;-84
2022/07/15 00:38:00;;;;;;;2.17;1.10;;;;;;;17.39;57.13;100355.91;1725797;82;26435;-83
2022/07/15 00:40:28;;;;;;;6.60;1.45;;;;;;;17.37;57.14;100354.48;1754412;80;27423;-84
2022/07/15 00:42:54;;;;;;;2.77;0.98;;;;;;;17.36;57.13;100351.50;1739666;80;25919;-83
2022/07/15 00:45:24;;;;;;;3.62;1.00;;;;;;;17.35;57.31;100352.55;1740386;80;26055;-84
2022/07/15 00:47:56;;;;;;;3.37;1.52;;;;;;;17.34;57.43;100350.36;1739615;80;26351;-84
2022/07/15 00:50:27;;;;;;;1.62;1.00;;;;;;;17.30;57.54;100349.19;1749249;80;26768;-84
2022/07/15 00:52:56;;;;;;;2.00;0.70;;;;;;;17.23;57.84;100349.86;1689098;82;28279;-84
2022/07/15 00:55:24;;;;;;;2.75;1.05;;;;;;;17.15;57.98;100347.48;1696592;82;25352;-84
2022/07/15 00:57:56;;;;;;;2.85;1.15;;;;;;;17.08;58.27;100350.03;1689593;82;25799;-83
2022/07/15 01:00:23;;;;;;;7.58;1.17;;;;;;;17.02;58.29;100352.33;1690016;82;25940;-84
2022/07/15 01:02:52;;;;;;;3.87;0.82;;;;;;;16.94;58.37;100344.84;1695677;82;25929;-85
2022/07/15 01:05:20;;;;;;;5.62;1.00;;;;;;;16.89;58.36;100349.32;1693984;82;27482;-84
2022/07/15 01:07:51;;;;;;;4.30;1.12;;;;;;;16.85;58.50;100349.50;1689786;83;25999;-84
2022/07/15 01:10:21;;;;;;;2.35;1.20;;;;;;;16.78;58.48;100349.60;1753438;80;25804;-84
2022/07/15 01:12:49;;;;;;;2.75;1.00;;;;;;;16.72;58.48;100338.34;1691474;82;25887;-83
2022/07/15 01:15:18;;;;;;;3.70;1.10;;;;;;;16.67;58.61;100338.75;1762866;80;26353;-84
2022/07/15 01:17:45;;;;;;;4.22;1.50;;;;;;;16.62;58.70;100344.02;1761145;80;27637;-84
2022/07/15 01:20:16;;;;;;;3.95;1.32;;;;;;;16.53;58.87;100342.18;1759589;80;25792;-83
2022/07/15 01:22:50;;;;;;;7.42;2.05;;;;;;;16.44;59.03;100346.78;1757598;80;26569;-84
2022/07/15 01:25:18;;;;;;;3.12;0.98;;;;;;;16.33;59.84;100348.40;1755018;80;25913;-84
2022/07/15 01:27:45;;;;;;;4.40;1.42;;;;;;;16.23;59.95;100345.95;1759382;80;25980;-84
2022/07/15 01:30:13;;;;;;;6.12;1.32;;;;;;;16.15;60.36;100338.97;1757854;80;27636;-84
2022/07/15 01:32:40;;;;;;;4.95;1.20;;;;;;;16.07;60.56;100346.89;1723302;81;25909;-84
2022/07/15 01:35:08;;;;;;;4.35;1.10;;;;;;;16.01;60.70;100346.45;1762522;80;25796;-84
2022/07/15 01:37:36;;;;;;;2.27;0.90;;;;;;;15.94;60.77;100343.52;1760978;80;25773;-84
2022/07/15 01:40:05;;;;;;;3.20;1.22;;;;;;;15.89;60.88;100345.55;1719693;82;25891;-84
2022/07/15 01:42:32;;;;;;;2.22;1.05;;;;;;;15.85;60.89;100348.41;1762979;80;27429;-83
2022/07/15 01:44:58;;;;;;;4.25;1.60;;;;;;;15.81;60.99;100358.02;1755845;80;25761;-84
2022/07/15 01:47:27;;;;;;;2.72;1.10;;;;;;;15.79;61.27;100355.24;1762623;80;26474;-84
2022/07/15 01:49:55;;;;;;;4.07;1.97;;;;;;;15.76;61.36;100355.72;1717958;82;26609;-84
2022/07/15 01:52:24;;;;;;;3.22;1.80;;;;;;;15.73;61.56;100353.45;1751071;80;25280;-83
2022/07/15 01:54:51;;;;;;;5.55;2.12;;;;;;;15.70;61.72;100348.48;1755696;80;27618;-84
2022/07/15 01:57:18;;;;;;;4.65;1.35;;;;;;;15.66;61.69;100350.00;1759152;80;26535;-84
2022/07/15 01:59:49;;;;;;;5.25;1.40;;;;;;;15.64;61.90;100355.63;1770481;80;26391;-84
2022/07/15 02:02:17;;;;;;;4.80;1.25;;;;;;;15.62;62.11;100364.48;1769570;80;25927;-84
2022/07/15 02:04:43;;;;;;;9.13;1.90;;;;;;;15.57;62.13;100364.32;1767421;80;25768;-84
2022/07/15 02:07:10;;;;;;;2.65;0.88;;;;;;;15.55;62.40;100365.07;1737089;80;27453;-83
2022/07/15 02:09:37;;;;;;;3.87;1.95;;;;;;;15.52;62.43;100367.41;1762035;80;26580;-84
2022/07/15 02:12:04;;;;;;;2.65;1.02;;;;;;;15.50;62.74;100364.94;1770324;80;25741;-83
2022/07/15 02:14:33;;;;;;;4.70;1.17;;;;;;;15.50;62.64;100366.81;1750381;80;26612;-84
2022/07/15 02:17:02;;;;;;;3.75;1.02;;;;;;;15.49;62.74;100365.14;1751877;80;26143;-84
2022/07/15 02:19:31;;;;;;;5.45;1.47;;;;;;;15.43;62.75;100364.17;1764998;80;27525;-84
2022/07/15 02:21:57;;;;;;;4.20;1.57;;;;;;;15.41;63.04;100366.25;1695684;82;26589;-84
2022/07/15 02:24:23;;;;;;;3.17;1.10;;;;;;;15.38;63.15;100368.86;1766763;80;25742;-84
2022/07/15 02:26:49;;;;;;;7.10;1.75;;;;;;;15.33;63.10;100364.64;1768566;80;25769;-84
2022/07/15 02:29:16;;;;;;;4.47;1.32;;;;;;;15.30;63.07;100357.53;1769462;80;26164;-83
2022/07/15 02:31:44;;;;;;;6.10;1.72;;;;;;;15.23;63.26;100361.64;1765161;80;27456;-84
2022/07/15 02:34:10;;;;;;;3.37;1.15;;;;;;;15.17;63.58;100365.75;1766943;80;26053;-84
2022/07/15 02:36:39;;;;;;;3.85;1.17;;;;;;;15.10;63.86;100367.16;1768032;80;25726;-84
2022/07/15 02:39:05;;;;;;;2.95;1.00;;;;;;;15.05;64.37;100368.89;1734315;81;26605;-84
2022/07/15 02:41:33;;;;;;;4.12;1.10;;;;;;;14.98;64.47;100377.55;1766902;80;25916;-84
2022/07/15 02:44:02;;;;;;;9.63;1.30;;;;;;;14.95;64.84;100376.66;1762599;80;27438;-84
2022/07/15 02:46:28;;;;;;;5.62;1.22;;;;;;;14.91;64.88;100381.64;1764067;80;25891;-84
2022/07/15 02:48:55;;;;;;;5.67;1.62;;;;;;;14.90;65.01;100375.13;1751057;80;25823;-84
2022/07/15 02:51:23;;;;;;;5.42;1.50;;;;;;;14.89;65.27;100373.47;1720102;82;25941;-84
2022/07/15 02:53:49;;;;;;;4.72;1.35;;;;;;;14.87;65.45;100375.56;1761046;80;25905;-85
2022/07/15 02:56:18;;;;;;;5.53;1.67;;;;;;;14.87;65.48;100370.17;1762561;80;27457;-83
2022/07/15 02:58:44;;;;;;;15.85;5.58;;;;;;;14.91;65.79;100372.72;1764012;80;25515;-83
2022/07/15 03:01:10;;;;;;;7.35;3.98;;;;;;;14.94;65.84;100380.39;1717303;82;25841;-83
2022/07/15 03:03:37;;;;;;;8.53;2.83;;;;;;;14.97;65.91;100375.36;1726230;82;26372;-84
2022/07/15 03:06:08;;;;;;;4.30;2.10;;;;;;;14.98;65.82;100379.73;1719898;82;25706;-84
2022/07/15 03:08:35;;;;;;;5.95;2.25;;;;;;;14.97;65.99;100384.80;1717049;82;27451;-83
2022/07/15 03:11:01;;;;;;;4.65;1.47;;;;;;;14.95;66.32;100382.05;1726650;81;25606;-85
2022/07/15 03:13:29;;;;;;;3.55;1.20;;;;;;;14.94;66.58;100385.78;1766976;80;26111;-84
2022/07/15 03:15:55;;;;;;;4.25;1.32;;;;;;;14.91;66.40;100387.04;1724073;82;26749;-84
2022/07/15 03:18:22;;;;;;;6.33;1.70;;;;;;;14.89;66.74;100379.70;1756630;80;26455;-84
2022/07/15 03:20:49;;;;;;;3.65;1.32;;;;;;;14.85;66.86;100386.58;1764605;80;27469;-84
2022/07/15 03:23:15;;;;;;;4.85;1.27;;;;;;;14.82;66.84;100392.39;1766589;80;25840;-84
2022/07/15 03:25:42;;;;;;;4.95;1.22;;;;;;;14.78;66.96;100387.14;1747954;80;25815;-84
2022/07/15 03:28:10;;;;;;;6.35;1.55;;;;;;;14.74;66.95;100379.70;1762245;80;25930;-85
2022/07/15 03:30:38;;;;;;;2.40;1.25;;;;;;;14.68;67.16;100375.51;1766870;80;25954;-84
2022/07/15 03:33:05;;;;;;;4.78;1.62;;;;;;;14.65;67.08;100378.63;1699603;82;27467;-85
2022/07/15 03:35:31;;;;;;;6.03;1.85;;;;;;;14.68;67.22;100389.50;1762497;80;25851;-84
2022/07/15 03:37:58;;;;;;;5.58;1.82;;;;;;;14.75;67.51;100385.41;1722912;82;25838;-84
2022/07/15 03:40:25;;;;;;;5.15;1.90;;;;;;;14.77;67.54;100390.90;1756516;80;25802;-84
2022/07/15 03:42:52;;;;;;;4.60;1.90;;;;;;;14.78;67.34;100387.14;1745233;80;25862;-84
2022/07/15 03:45:18;;;;;;;3.10;1.70;;;;;;;14.80;67.63;100388.29;1728432;80;27589;-83
2022/07/15 03:47:46;;;;;;;4.87;1.32;;;;;;;14.83;67.60;100391.37;1759505;80;25941;-84
2022/07/15 03:50:13;;;;;;;6.42;1.75;;;;;;;14.90;67.75;100384.58;1699744;84;25812;-83
2022/07/15 03:52:40;;;;;;;6.47;1.52;;;;;;;14.97;67.98;100387.50;1762476;80;26007;-84
2022/07/15 03:55:09;;;;;;;5.78;1.60;;;;;;;15.07;68.06;100394.59;1713320;82;25803;-84
2022/07/15 03:57:36;;;;;;;3.77;1.50;;;;;;;15.12;68.06;100397.44;1762644;80;27415;-84
2022/07/15 04:00:05;;;;;;;5.20;1.50;;;;;;;15.16;68.08;100397.30;1764875;80;25831;-84
2022/07/15 04:02:33;;;;;;;4.12;1.67;;;;;;;15.23;68.17;100403.98;1753888;80;25832;-84
2022/07/15 04:04:59;;;;;;;6.97;1.57;;;;;;;15.26;68.31;100396.30;1714228;82;25831;-83
2022/07/15 04:07:26;;;;;;;6.35;1.80;;;;;;;15.31;68.37;100400.48;1764092;80;25873;-84
2022/07/15 04:09:52;;;;;;;6.17;1.72;;;;;;;15.42;68.45;100397.05;1719863;81;27535;-83
2022/07/15 04:12:18;;;;;;;5.97;1.85;;;;;;;15.55;68.44;100395.29;1764408;80;25954;-84
2022/07/15 04:14:45;;;;;;;6.65;1.57;;;;;;;15.62;68.30;100400.10;1719364;81;25797;-83
2022/07/15 04:17:13;;;;;;;6.78;2.02;;;;;;;15.72;68.16;100399.87;1764060;80;26567;-84
2022/07/15 04:19:40;;;;;;;4.60;2.08;;;;;;;15.82;68.18;100400.20;1757783;80;25915;-84
2022/07/15 04:22:06;;;;;;;6.30;1.77;;;;;;;15.90;67.95;100395.84;1721553;82;28386;-84
2022/07/15 04:24:34;;;;;;;5.35;1.52;;;;;;;16.01;67.86;100399.14;1762029;80;26496;-84
2022/07/15 04:27:00;;;;;;;5.65;1.75;;;;;;;16.10;68.62;100407.76;1697867;82;25879;-84
2022/07/15 04:29:28;;;;;;;5.65;1.60;;;;;;;16.12;68.62;100409.70;1763487;80;25970;-84
2022/07/15 04:31:55;;;;;;;7.72;1.52;;;;;;;16.13;68.92;100410.82;1745613;80;26440;-84
2022/07/15 04:34:23;;;;;;;6.03;1.62;;;;;;;16.19;69.27;100413.13;1760339;80;27508;-84
2022/07/15 04:36:49;;;;;;;6.67;2.65;;;;;;;16.27;69.11;100414.70;1759324;80;25754;-84
2022/07/15 04:39:16;;;;;;;5.45;1.65;;;;;;;16.34;68.65;100418.95;1763225;80;25835;-84
2022/07/15 04:41:43;;;;;;;7.47;2.17;;;;;;;16.42;68.65;100419.19;1714322;81;25887;-84
2022/07/15 04:44:09;;;;;;;5.10;1.90;;;;;;;16.51;68.56;100423.26;1762178;80;25827;-84
2022/07/15 04:46:36;;;;;;;4.62;1.80;;;;;;;16.59;67.92;100418.87;1699958;82;28037;-84
2022/07/15 04:52:05;;;;;;;4.42;2.05;;;;;;;16.73;68.15;100431.97;1757685;80;25931;-85
2022/07/15 04:54:34;;;;;;;5.00;2.10;;;;;;;16.82;67.80;100429.23;1770969;80;25767;-83
2022/07/15 04:57:01;;;;;;;6.40;1.50;;;;;;;16.91;67.98;100429.17;1770493;80;25787;-83
2022/07/15 04:59:27;;;;;;;4.97;1.62;;;;;;;17.00;67.52;100428.30;1770571;80;27623;-84
2022/07/15 05:01:53;;;;;;;5.45;1.50;;;;;;;17.11;67.65;100430.22;1769615;80;25901;-84
2022/07/15 05:04:22;;;;;;;5.25;1.45;;;;;;;17.28;67.43;100433.08;1764215;80;25870;-85
2022/07/15 05:06:49;;;;;;;5.37;1.50;;;;;;;17.43;66.84;100431.54;1768580;80;25935;-84
2022/07/15 05:09:16;;;;;;;3.60;1.60;;;;;;;17.54;66.68;100428.56;1762487;80;26444;-84
2022/07/15 05:11:43;;;;;;;7.30;1.70;;;;;;;17.59;66.19;100431.41;1769207;80;27452;-84
2022/07/15 05:14:10;;;;;;;4.42;1.17;;;;;;;17.58;65.34;100437.34;1766659;80;25800;-84
2022/07/15 05:16:36;;;;;;;3.33;1.35;;;;;;;17.58;65.19;100440.57;1765022;80;25949;-84
2022/07/15 05:19:03;;;;;;;4.85;1.87;;;;;;;17.53;65.22;100446.72;1764360;80;25864;-84
2022/07/15 05:21:31;;;;;;;3.67;1.50;;;;;;;17.50;65.01;100458.53;1761873;80;25755;-84
2022/07/15 05:23:57;;;;;;;3.50;1.70;;;;;;;17.45;64.85;100459.77;1698613;82;27445;-84
2022/07/15 05:26:23;;;;;;;4.90;1.20;;;;;;;17.44;65.73;100471.11;1765358;80;26360;-84
2022/07/15 05:28:49;;;;;;;7.72;1.75;;;;;;;17.44;66.58;100477.05;1764421;80;25336;-85
2022/07/15 05:31:16;;;;;;;5.70;1.07;;;;;;;17.28;66.62;100484.52;1762841;80;25937;-84
2022/07/15 05:33:43;;;;;;;3.27;1.12;;;;;;;17.15;67.49;100489.59;1765256;80;25788;-84
2022/07/15 05:36:14;;;;;;;4.03;1.12;;;;;;;17.09;67.50;100485.63;1764614;80;27507;-84
2022/07/15 05:38:42;;;;;;;3.75;1.10;;;;;;;17.07;67.46;100488.58;1765745;80;26509;-84
2022/07/15 05:41:09;;;;;;;5.50;1.27;;;;;;;17.09;67.88;100485.63;1762609;80;25802;-84
2022/07/15 05:43:36;;;;;;;4.78;1.27;;;;;;;17.15;67.82;100482.82;1722827;81;25749;-84
2022/07/15 05:46:04;;;;;;;1.77;1.05;;;;;;;17.23;67.58;100479.80;1766120;80;26074;-84
2022/07/15 05:48:33;;;;;;;4.62;1.25;;;;;;;17.36;67.62;100475.53;1767708;80;28040;-84
2022/07/15 05:50:59;;;;;;;4.03;1.30;;;;;;;17.51;67.32;100473.19;1722103;82;25353;-83
2022/07/15 05:53:26;;;;;;;5.75;1.60;;;;;;;17.66;67.23;100473.55;1762226;80;25675;-83
2022/07/15 05:55:52;;;;;;;3.17;1.42;;;;;;;17.79;66.61;100481.16;1754559;80;25771;-83
2022/07/15 05:58:19;;;;;;;2.90;1.17;;;;;;;17.89;65.85;100492.22;1760163;80;25941;-84
2022/07/15 06:00:46;;;;;;;3.55;1.47;;;;;;;17.91;65.09;100492.80;1699610;82;28341;-83
2022/07/15 06:03:13;;;;;;;1.85;1.30;;;;;;;17.89;64.60;100494.41;1758436;80;26020;-83
2022/07/15 06:05:42;;;;;;;5.72;1.72;;;;;;;17.90;64.55;100497.95;1699640;84;25856;-83
2022/07/15 06:08:10;;;;;;;3.17;1.50;;;;;;;17.98;64.79;100499.77;1749627;80;25793;-84
2022/07/15 06:10:38;;;;;;;3.72;1.52;;;;;;;18.17;65.79;100508.58;1765608;80;25547;-85
2022/07/15 06:13:05;;;;;;;8.53;1.72;;;;;;;18.10;63.93;100514.13;1762898;80;28255;-86
2022/07/15 06:15:31;;;;;;;4.25;1.35;;;;;;;17.91;63.86;100515.31;1763131;80;25835;-84
2022/07/15 06:17:58;;;;;;;7.58;1.60;;;;;;;17.78;64.58;100515.55;1761310;80;25877;-84
2022/07/15 06:20:26;;;;;;;6.17;1.47;;;;;;;17.68;64.72;100515.33;1763416;80;27081;-84
2022/07/15 06:22:53;;;;;;;4.00;1.30;;;;;;;17.53;65.09;100529.33;1686895;82;25789;-84
2022/07/15 06:25:21;;;;;;;8.40;1.87;;;;;;;17.43;65.36;100518.72;1695325;82;27462;-84
2022/07/15 06:27:50;;;;;;;4.25;1.98;;;;;;;17.30;64.95;100515.69;1758864;80;25842;-84
2022/07/15 06:30:16;;;;;;;4.17;2.12;;;;;;;17.33;65.54;100515.77;1763621;80;25901;-84
2022/07/15 06:32:43;;;;;;;3.22;2.20;;;;;;;17.44;65.78;100522.56;1759999;80;26365;-84
2022/07/15 06:35:10;;;;;;;3.90;1.62;;;;;;;17.60;65.79;100517.83;1762339;80;25345;-83
2022/07/15 06:37:37;;;;;;;3.40;1.82;;;;;;;17.63;64.56;100524.15;1761203;80;28380;-84
2022/07/15 06:40:07;;;;;;;2.65;1.45;;;;;;;17.60;64.66;100531.38;1761118;80;25678;-84
2022/07/15 06:42:33;;;;;;;2.85;1.22;;;;;;;17.57;65.05;100535.92;1719913;81;26167;-84
2022/07/15 06:45:02;;;;;;;2.75;1.40;;;;;;;17.60;65.06;100540.02;1760411;80;27321;-83
2022/07/15 06:47:29;;;;;;;3.55;1.52;;;;;;;17.60;65.17;100540.86;1758013;80;26592;-84
2022/07/15 06:49:57;;;;;;;2.42;1.50;;;;;;;17.62;65.43;100544.16;1761853;80;27479;-84
2022/07/15 06:52:25;;;;;;;1.80;1.60;;;;;;;17.70;65.10;100547.06;1770534;80;26585;-84
2022/07/15 06:54:53;;;;;;;5.15;1.90;;;;;;;17.85;65.98;100545.24;1770602;80;25998;-85
2022/07/15 06:57:20;;;;;;;8.18;2.40;;;;;;;18.00;65.23;100547.78;1762022;80;25941;-86
2022/07/15 06:59:46;;;;;;;2.95;1.20;;;;;;;18.19;65.87;100547.95;1770389;80;25891;-86
2022/07/15 07:02:13;;;;;;;4.00;1.30;;;;;;;18.38;63.84;100545.91;1769268;80;27447;-86
2022/07/15 07:04:42;;;;;;;1.70;0.98;;;;;;;18.48;63.58;100558.91;1762383;80;25986;-85
2022/07/15 07:07:08;;;;;;;4.42;0.95;;;;;;;18.50;62.60;100560.84;1740413;80;26581;-85
2022/07/15 07:09:35;;;;;;;2.85;1.10;;;;;;;18.48;62.82;100554.84;1769951;80;25986;-86
2022/07/15 07:12:01;;;;;;;4.03;1.60;;;;;;;18.49;63.16;100554.59;1769857;80;26501;-85
2022/07/15 07:14:27;;;;;;;2.27;1.30;;;;;;;18.43;61.96;100553.61;1763569;80;27426;-84
2022/07/15 07:16:54;;;;;;;3.85;0.93;;;;;;;18.50;62.88;100560.28;1764711;80;25293;-84
2022/07/15 07:19:20;;;;;;;2.27;1.20;;;;;;;18.54;62.24;100555.23;1769732;80;25811;-84
2022/07/15 07:21:46;;;;;;;1.98;0.90;;;;;;;18.46;61.56;100553.70;1769513;80;26090;-85
2022/07/15 07:24:13;;;;;;;3.80;0.93;;;;;;;18.43;61.67;100556.88;1769263;80;25768;-84
2022/07/15 07:26:39;;;;;;;2.62;0.70;;;;;;;18.45;62.25;100558.84;1768220;79;27445;-84
2022/07/15 07:29:06;;;;;;;2.72;0.78;;;;;;;18.55;62.21;100558.22;1760580;80;25772;-83
2022/07/15 07:31:34;;;;;;;1.85;0.80;;;;;;;18.70;61.83;100562.61;1768222;80;25531;-83
2022/07/15 07:34:00;;;;;;;1.20;0.85;;;;;;;18.85;62.31;100571.89;1768936;80;25840;-83
2022/07/15 07:36:27;;;;;;;2.27;0.78;;;;;;;19.03;59.88;100566.25;1764900;80;25891;-83
2022/07/15 07:38:53;;;;;;;1.55;0.82;;;;;;;18.95;60.34;100572.08;1760694;80;27436;-83
2022/07/15 07:41:21;;;;;;;6.87;0.90;;;;;;;18.71;59.17;100567.78;1744938;80;26517;-83
2022/07/15 07:43:48;;;;;;;1.80;0.68;;;;;;;18.59;59.93;100569.71;1767105;80;25893;-84
2022/07/15 07:46:16;;;;;;;3.58;1.00;;;;;;;18.74;60.78;100567.31;1765779;80;25760;-83
2022/07/15 07:48:43;;;;;;;2.50;0.78;;;;;;;18.96;59.16;100568.31;1767226;80;25740;-83
2022/07/15 07:51:09;;;;;;;2.70;0.72;;;;;;;19.11;58.75;100566.41;1763882;78;27422;-84
2022/07/15 07:53:36;;;;;;;2.15;0.80;;;;;;;19.29;56.75;100566.75;1758379;79;25810;-84
2022/07/15 07:56:04;;;;;;;2.52;1.10;;;;;;;19.24;57.53;100578.34;1755154;79;25945;-82
2022/07/15 07:58:30;;;;;;;3.27;0.88;;;;;;;19.15;56.13;100577.08;1760279;79;25996;-84
2022/07/15 08:00:56;;;;;;;3.12;0.60;;;;;;;19.04;57.37;100580.66;1771497;79;26075;-84
2022/07/15 08:03:23;;;;;;;1.65;0.60;;;;;;;19.16;57.61;100576.02;1783653;78;27447;-85
2022/07/15 08:05:49;;;;;;;2.08;0.75;;;;;;;19.34;57.48;100575.83;1790293;79;25815;-85
2022/07/15 08:08:20;;;;;;;3.95;0.80;;;;;;;19.40;57.56;100578.09;1783863;78;25724;-85
2022/07/15 08:10:51;;;;;;;3.80;0.75;;;;;;;19.32;55.90;100582.01;1758897;79;26352;-82
2022/07/15 08:13:21;;;;;;;4.70;0.93;;;;;;;19.20;55.60;100585.33;1793261;78;25991;-85
2022/07/15 08:15:49;;;;;;;4.08;1.30;;;;;;;19.22;55.05;100577.76;1782168;79;27504;-84
2022/07/15 08:18:15;;;;;;;7.67;1.10;;;;;;;19.39;54.08;100581.36;1785583;79;25748;-84
2022/07/15 08:20:42;;;;;;;2.87;0.80;;;;;;;19.62;55.75;100580.39;1779078;78;26286;-87
2022/07/15 08:23:10;;;;;;;2.98;0.98;;;;;;;19.57;52.56;100575.69;1774879;79;25781;-84
2022/07/15 08:25:38;;;;;;;3.87;0.70;;;;;;;19.27;54.25;100581.91;1786901;79;25943;-85
2022/07/15 08:28:06;;;;;;;5.12;1.15;;;;;;;19.15;54.86;100585.22;1783187;78;28307;-85
2022/07/15 08:30:34;;;;;;;2.80;0.70;;;;;;;19.15;54.87;100588.77;1788082;78;25834;-84
2022/07/15 08:33:01;;;;;;;2.12;0.78;;;;;;;19.27;55.00;100590.05;1785984;78;25889;-85
2022/07/15 08:35:28;;;;;;;2.35;0.80;;;;;;;19.42;54.43;100575.42;1789730;78;25743;-84
2022/07/15 08:37:54;;;;;;;3.50;0.72;;;;;;;19.67;52.75;100583.20;1787654;78;25726;-84
2022/07/15 08:40:21;;;;;;;4.90;0.93;;;;;;;19.79;52.84;100584.77;1784491;78;27420;-84
2022/07/15 08:42:48;;;;;;;3.52;0.70;;;;;;;19.92;51.26;100584.44;1780245;79;25902;-83
2022/07/15 08:45:16;;;;;;;3.90;0.90;;;;;;;20.07;52.92;100582.48;1790588;78;25794;-84
2022/07/15 08:47:46;;;;;;;2.20;0.93;;;;;;;20.25;52.34;100589.59;1781869;79;26548;-84
2022/07/15 08:50:17;;;;;;;5.05;1.27;;;;;;;20.30;49.44;100584.20;1790793;78;25887;-85
2022/07/15 09:05:48;;;;;;;3.22;0.50;;;;;;;20.43;47.63;100598.80;1728668;80;25776;-84
2022/07/15 09:08:17;;;;;;;2.52;0.60;;;;;;;20.42;47.89;100606.13;1701028;83;25807;-84
2022/07/15 09:10:59;;;;;;;3.10;1.17;;;;;;;20.22;47.13;100609.94;1696383;83;27470;-84
2022/07/15 09:13:32;;;;;;;3.22;0.65;;;;;;;20.16;48.57;100610.91;1713740;83;25829;-86
2022/07/15 09:16:04;;;;;;;4.55;0.80;;;;;;;20.20;48.44;100606.65;1711024;81;26250;-85
2022/07/15 09:18:38;;;;;;;3.15;0.60;;;;;;;20.25;45.85;100601.83;1692951;83;25944;-84
2022/07/15 09:21:21;;;;;;;3.65;0.70;;;;;;;20.20;46.52;100610.73;1703941;82;25802;-83
2022/07/15 09:23:50;;;;;;;3.77;0.50;;;;;;;20.25;47.00;100602.63;1697849;82;27453;-83
2022/07/15 09:26:29;;;;;;;2.75;0.68;;;;;;;20.46;45.22;100588.27;1705599;83;26191;-84
2022/07/15 09:28:57;;;;;;;1.52;0.70;;;;;;;20.57;46.83;100603.63;1715623;82;26502;-85
2022/07/15 09:34:24;;;;;;;4.47;0.75;;;;;;;20.47;45.94;100615.74;1698605;84;25984;-85
2022/07/15 09:36:54;;;;;;;3.52;0.70;;;;;;;20.33;45.37;100611.74;1702894;82;27305;-85
2022/07/15 09:39:22;;;;;;;3.62;0.60;;;;;;;20.11;46.68;100609.99;1699782;82;25858;-84
2022/07/15 09:41:51;;;;;;;4.75;0.80;;;;;;;20.16;46.99;100611.44;1707320;82;25947;-84
2022/07/15 09:44:20;;;;;;;3.65;1.15;;;;;;;20.16;46.58;100614.99;1704280;82;25948;-86
2022/07/15 09:46:59;;;;;;;2.95;0.80;;;;;;;20.08;45.63;100620.83;1696451;84;25870;-84
2022/07/15 09:49:33;;;;;;;2.72;1.05;;;;;;;19.99;45.82;100623.13;1704325;84;28380;-84
2022/07/15 09:52:07;;;;;;;3.15;1.00;;;;;;;19.81;45.97;100634.27;1713872;81;26035;-84
2022/07/15 09:54:40;;;;;;;5.28;0.70;;;;;;;19.73;45.88;100631.97;1681009;84;25807;-85
2022/07/15 09:57:15;;;;;;;8.43;1.35;;;;;;;19.70;46.98;100624.81;1690117;83;25980;-85
2022/07/15 09:59:47;;;;;;;6.58;1.40;;;;;;;19.71;47.32;100629.20;1686589;84;25924;-85
2022/07/15 10:02:15;;;;;;;4.92;1.15;;;;;;;19.76;46.46;100625.22;1719401;81;27122;-85
2022/07/15 10:04:42;;;;;;;6.78;1.20;;;;;;;19.94;46.64;100618.16;1715830;80;25754;-84
2022/07/15 10:07:12;;;;;;;8.65;1.22;;;;;;;20.08;45.76;100621.39;1689682;84;26026;-84
2022/07/15 10:09:41;;;;;;;6.85;0.82;;;;;;;20.22;45.21;100627.63;1694090;83;25821;-83
2022/07/15 10:12:24;;;;;;;1.35;0.53;;;;;;;20.34;45.56;100632.41;1720997;83;25936;-85
2022/07/15 10:15:15;;;;;;;7.33;0.80;;;;;;;20.29;44.26;100630.17;1686207;83;27476;-84
2022/07/15 10:18:03;;;;;;;4.37;0.50;;;;;;;20.17;45.40;100645.18;1683356;83;25854;-83
2022/07/15 10:20:58;;;;;;;2.08;0.53;;;;;;;20.00;45.04;100641.11;1698013;83;25810;-84
2022/07/15 10:23:55;;;;;;;4.08;0.53;;;;;;;19.92;45.61;100648.33;1696961;83;25843;-84
2022/07/15 10:26:48;;;;;;;4.60;0.90;;;;;;;19.89;45.74;100644.73;1685138;84;25906;-83
2022/07/15 10:29:15;;;;;;;2.70;0.60;;;;;;;19.90;46.30;100642.31;1681958;84;27489;-85
2022/07/15 10:31:44;;;;;;;2.37;0.57;;;;;;;20.07;45.96;100642.84;1686459;84;25906;-84
2022/07/15 10:34:16;;;;;;;1.95;0.60;;;;;;;20.26;46.02;100640.17;1722251;81;25789;-84
2022/07/15 10:36:53;;;;;;;4.45;1.07;;;;;;;20.38;45.03;100636.84;1695819;83;25915;-82
2022/07/15 10:39:30;;;;;;;3.85;0.90;;;;;;;20.56;45.82;100635.18;1692753;84;25336;-83
2022/07/15 10:42:03;;;;;;;2.72;0.80;;;;;;;20.85;45.67;100638.58;1691745;84;28271;-84
2022/07/15 10:44:33;;;;;;;2.05;0.50;;;;;;;20.88;42.92;100649.77;1691356;83;25960;-83
2022/07/15 10:47:18;;;;;;;4.40;0.50;;;;;;;20.72;42.52;100648.74;1686646;83;25337;-83
2022/07/15 10:49:47;;;;;;;4.85;0.68;;;;;;;20.49;43.70;100663.94;1712741;83;25789;-84
2022/07/15 10:52:20;;;;;;;1.22;0.72;;;;;;;20.23;42.89;100662.45;1695847;84;25757;-84
2022/07/15 10:54:58;;;;;;;3.50;0.65;;;;;;;20.07;43.23;100665.42;1691513;84;27425;-83
2022/07/15 10:57:50;;;;;;;3.30;0.60;;;;;;;20.16;44.24;100653.59;1695554;84;25785;-84
2022/07/15 11:00:37;;;;;;;4.03;0.82;;;;;;;20.25;45.28;100650.78;1696959;84;25923;-83
2022/07/15 11:03:17;;;;;;;10.72;5.85;;;;;;;20.36;44.68;100654.75;1713892;83;25790;-84
2022/07/15 11:05:56;;;;;;;9.63;4.30;;;;;;;20.41;42.99;100653.48;1700308;81;25339;-85
2022/07/15 11:08:39;;;;;;;3.17;0.95;;;;;;;20.49;43.24;100650.86;1659788;85;28346;-83
2022/07/15 11:11:20;;;;;;;6.80;1.27;;;;;;;20.46;42.02;100659.54;1682904;84;25896;-83
2022/07/15 11:13:48;;;;;;;;;;;;;;;20.35;43.16;100665.90;1684523;83;26220;-84
2022/07/15 11:16:20;;;;;;;2.55;0.50;;;;;;;20.23;42.27;100654.30;1668083;85;25830;-83
2022/07/15 11:18:50;;;;;;;5.10;0.65;;;;;;;20.15;41.68;100663.64;1686928;83;26053;-83
2022/07/15 11:21:19;;;;;;;2.12;0.60;;;;;;;20.14;41.29;100663.91;1648965;85;28294;-83
2022/07/15 11:23:49;;;;;;;4.37;0.60;;;;;;;20.10;40.88;100666.83;1684144;83;25357;-83
2022/07/15 11:26:16;;;;;;;3.17;0.50;;;;;;;20.09;40.69;100667.89;1683538;84;26536;-83
2022/07/15 11:28:51;;;;;;;5.05;0.60;;;;;;;20.03;40.53;100666.99;1679569;84;25846;-82
2022/07/15 11:31:17;;;;;;;3.47;0.78;;;;;;;20.13;40.79;100663.07;1683285;84;26264;-82
2022/07/15 11:33:44;;;;;;;1.25;0.50;;;;;;;20.27;41.32;100669.05;1689838;83;28327;-83
2022/07/15 11:36:22;;;;;;;3.08;0.72;;;;;;;20.28;41.82;100670.67;1686490;84;25936;-84
2022/07/15 11:38:49;;;;;;;4.35;0.53;;;;;;;20.23;42.13;100667.33;1693204;84;25870;-84
2022/07/15 11:46:57;;;;;;;5.90;0.70;;;;;;;20.11;41.98;100677.98;1676700;84;28401;-83
2022/07/15 11:49:40;;;;;;;3.08;0.50;;;;;;;20.08;42.27;100677.13;1677724;84;25926;-84
2022/07/15 11:52:10;;;;;;;3.12;0.60;;;;;;;20.13;41.49;100671.75;1677040;84;25904;-84
2022/07/15 11:54:39;;;;;;;1.20;0.40;;;;;;;20.22;41.05;100674.39;1651178;85;34938;-84
2022/07/15 11:57:09;;;;;;;1.72;0.40;;;;;;;20.29;41.24;100682.69;1661183;85;26085;-84